sensor_id;sensor_type;location;lat;lon;timestamp;pressure;altitude;pressure_sealevel;temperature;humidity
70521;BME280;58442;52.716;23.560;2024-01-25T00:00:07;99918.49;;;5.18;79.11
70521;BME280;58442;52.716;23.560;2024-01-25T00:00:18;99924.66;;;5.19;79.12
70521;BME280;58442;52.716;23.560;2024-01-25T00:00:35;99919.27;;;5.19;79.13
70521;BME280;58442;52.716;23.560;2024-01-25T00:00:51;99921.19;;;5.18;79.14
70521;BME280;58442;52.716;23.560;2024-01-25T00:01:07;99915.01;;;5.18;79.14
70521;BME280;58442;52.716;23.560;2024-01-25T00:01:23;99920.40;;;5.18;79.16
70521;BME280;58442;52.716;23.560;2024-01-25T00:01:34;99913.45;;;5.17;79.15
70521;BME280;58442;52.716;23.560;2024-01-25T00:01:45;99922.30;;;5.17;79.16
70521;BME280;58442;52.716;23.560;2024-01-25T00:01:56;99918.04;;;5.16;79.17
70521;BME280;58442;52.716;23.560;2024-01-25T00:02:08;99930.39;;;5.17;79.17
70521;BME280;58442;52.716;23.560;2024-01-25T00:02:19;99914.22;;;5.17;79.17
70521;BME280;58442;52.716;23.560;2024-01-25T00:02:30;99917.26;;;5.16;79.16
70521;BME280;58442;52.716;23.560;2024-01-25T00:02:41;99914.08;;;5.14;79.36
70521;BME280;58442;52.716;23.560;2024-01-25T00:02:52;99928.81;;;5.16;79.19
70521;BME280;58442;52.716;23.560;2024-01-25T00:03:04;99912.66;;;5.16;79.19
70521;BME280;58442;52.716;23.560;2024-01-25T00:03:15;99914.56;;;5.16;79.20
70521;BME280;58442;52.716;23.560;2024-01-25T00:03:26;99911.88;;;5.16;79.22
70521;BME280;58442;52.716;23.560;2024-01-25T00:03:38;99917.26;;;5.16;79.23
70521;BME280;58442;52.716;23.560;2024-01-25T00:03:49;99922.64;;;5.16;79.23
70521;BME280;58442;52.716;23.560;2024-01-25T00:04:00;99922.64;;;5.16;79.23
70521;BME280;58442;52.716;23.560;2024-01-25T00:04:11;99915.69;;;5.15;79.23
70521;BME280;58442;52.716;23.560;2024-01-25T00:04:22;99921.08;;;5.15;79.24
70521;BME280;58442;52.716;23.560;2024-01-25T00:04:33;99921.86;;;5.15;79.24
70521;BME280;58442;52.716;23.560;2024-01-25T00:04:44;99917.26;;;5.16;79.25
70521;BME280;58442;52.716;23.560;2024-01-25T00:04:55;99917.26;;;5.16;79.24
70521;BME280;58442;52.716;23.560;2024-01-25T00:05:07;99919.95;;;5.16;79.25
70521;BME280;58442;52.716;23.560;2024-01-25T00:05:18;99918.04;;;5.16;79.32
70521;BME280;58442;52.716;23.560;2024-01-25T00:05:29;99919.47;;;5.14;79.26
70521;BME280;58442;52.716;23.560;2024-01-25T00:05:42;99919.47;;;5.14;79.25
70521;BME280;58442;52.716;23.560;2024-01-25T00:05:53;99921.08;;;5.15;79.26
70521;BME280;58442;52.716;23.560;2024-01-25T00:06:06;99923.77;;;5.15;79.26
70521;BME280;58442;52.716;23.560;2024-01-25T00:06:18;99919.47;;;5.14;79.26
70521;BME280;58442;52.716;23.560;2024-01-25T00:06:31;99914.08;;;5.14;79.26
70521;BME280;58442;52.716;23.560;2024-01-25T00:06:42;99915.99;;;5.13;79.26
70521;BME280;58442;52.716;23.560;2024-01-25T00:06:53;99910.60;;;5.13;79.20
70521;BME280;58442;52.716;23.560;2024-01-25T00:07:04;99917.91;;;5.13;79.27
70521;BME280;58442;52.716;23.560;2024-01-25T00:07:16;99912.52;;;5.13;79.27
70521;BME280;58442;52.716;23.560;2024-01-25T00:07:27;99915.21;;;5.13;79.27
70521;BME280;58442;52.716;23.560;2024-01-25T00:07:47;99917.91;;;5.13;79.28
70521;BME280;58442;52.716;23.560;2024-01-25T00:07:58;99909.83;;;5.13;79.30
70521;BME280;58442;52.716;23.560;2024-01-25T00:08:09;99910.16;;;5.11;79.30
70521;BME280;58442;52.716;23.560;2024-01-25T00:08:20;99920.93;;;5.11;79.30
70521;BME280;58442;52.716;23.560;2024-01-25T00:08:32;99918.23;;;5.11;79.31
70521;BME280;58442;52.716;23.560;2024-01-25T00:08:43;99910.16;;;5.11;79.32
70521;BME280;58442;52.716;23.560;2024-01-25T00:08:54;99917.12;;;5.12;79.34
70521;BME280;58442;52.716;23.560;2024-01-25T00:09:05;99912.06;;;5.11;79.33
70521;BME280;58442;52.716;23.560;2024-01-25T00:09:16;99910.95;;;5.12;79.33
70521;BME280;58442;52.716;23.560;2024-01-25T00:09:27;99915.54;;;5.11;79.33
70521;BME280;58442;52.716;23.560;2024-01-25T00:09:38;99920.93;;;5.11;79.34
70521;BME280;58442;52.716;23.560;2024-01-25T00:09:49;99919.02;;;5.12;79.34
70521;BME280;58442;52.716;23.560;2024-01-25T00:10:01;99913.63;;;5.12;79.36
70521;BME280;58442;52.716;23.560;2024-01-25T00:10:12;99914.43;;;5.12;79.35
70521;BME280;58442;52.716;23.560;2024-01-25T00:10:23;99910.95;;;5.12;79.36
70521;BME280;58442;52.716;23.560;2024-01-25T00:10:34;99921.72;;;5.12;79.36
70521;BME280;58442;52.716;23.560;2024-01-25T00:10:45;99912.85;;;5.11;79.35
70521;BME280;58442;52.716;23.560;2024-01-25T00:10:57;99916.34;;;5.12;79.36
70521;BME280;58442;52.716;23.560;2024-01-25T00:11:08;99913.63;;;5.12;79.36
70521;BME280;58442;52.716;23.560;2024-01-25T00:11:20;99912.85;;;5.11;79.34
70521;BME280;58442;52.716;23.560;2024-01-25T00:11:31;99916.34;;;5.12;79.34
70521;BME280;58442;52.716;23.560;2024-01-25T00:11:44;99921.72;;;5.12;79.34
70521;BME280;58442;52.716;23.560;2024-01-25T00:11:55;99919.02;;;5.12;79.34
70521;BME280;58442;52.716;23.560;2024-01-25T00:12:06;99917.12;;;5.12;79.34
70521;BME280;58442;52.716;23.560;2024-01-25T00:12:17;99918.23;;;5.11;79.33
70521;BME280;58442;52.716;23.560;2024-01-25T00:12:28;99914.77;;;5.11;79.34
70521;BME280;58442;52.716;23.560;2024-01-25T00:12:40;99910.16;;;5.11;79.34
70521;BME280;58442;52.716;23.560;2024-01-25T00:12:51;99908.59;;;5.10;79.34
70521;BME280;58442;52.716;23.560;2024-01-25T00:13:02;99919.02;;;5.12;79.34
70521;BME280;58442;52.716;23.560;2024-01-25T00:13:13;99920.15;;;5.11;79.34
70521;BME280;58442;52.716;23.560;2024-01-25T00:13:25;99921.72;;;5.12;79.34
70521;BME280;58442;52.716;23.560;2024-01-25T00:13:36;99916.34;;;5.12;79.34
70521;BME280;58442;52.716;23.560;2024-01-25T00:13:49;99910.16;;;5.11;79.34
70521;BME280;58442;52.716;23.560;2024-01-25T00:14:00;99918.23;;;5.11;79.33
70521;BME280;58442;52.716;23.560;2024-01-25T00:14:11;99916.34;;;5.12;79.34
70521;BME280;58442;52.716;23.560;2024-01-25T00:14:23;99916.34;;;5.12;79.32
70521;BME280;58442;52.716;23.560;2024-01-25T00:14:34;99917.12;;;5.12;79.32
70521;BME280;58442;52.716;23.560;2024-01-25T00:14:45;99910.16;;;5.11;79.33
70521;BME280;58442;52.716;23.560;2024-01-25T00:14:56;99920.59;;;5.13;79.32
70521;BME280;58442;52.716;23.560;2024-01-25T00:15:07;99916.34;;;5.12;79.31
70521;BME280;58442;52.716;23.560;2024-01-25T00:15:18;99911.73;;;5.12;79.30
70521;BME280;58442;52.716;23.560;2024-01-25T00:15:30;99916.34;;;5.12;79.30
70521;BME280;58442;52.716;23.560;2024-01-25T00:15:41;99913.63;;;5.12;79.12
70521;BME280;58442;52.716;23.560;2024-01-25T00:15:52;99912.52;;;5.13;79.29
70521;BME280;58442;52.716;23.560;2024-01-25T00:16:03;99920.59;;;5.13;79.29
70521;BME280;58442;52.716;23.560;2024-01-25T00:16:15;99913.63;;;5.12;79.28
70521;BME280;58442;52.716;23.560;2024-01-25T00:16:27;99915.21;;;5.13;79.29
70521;BME280;58442;52.716;23.560;2024-01-25T00:16:42;99915.21;;;5.13;79.28
70521;BME280;58442;52.716;23.560;2024-01-25T00:16:53;99913.63;;;5.12;79.28
70521;BME280;58442;52.716;23.560;2024-01-25T00:17:04;99918.68;;;5.13;79.27
70521;BME280;58442;52.716;23.560;2024-01-25T00:17:16;99912.52;;;5.13;79.27
70521;BME280;58442;52.716;23.560;2024-01-25T00:17:27;99917.91;;;5.13;79.26
70521;BME280;58442;52.716;23.560;2024-01-25T00:17:38;99917.91;;;5.13;79.26
70521;BME280;58442;52.716;23.560;2024-01-25T00:17:49;99917.12;;;5.12;79.25
70521;BME280;58442;52.716;23.560;2024-01-25T00:18:00;99910.95;;;5.12;79.23
70521;BME280;58442;52.716;23.560;2024-01-25T00:18:11;99911.73;;;5.12;79.23
70521;BME280;58442;52.716;23.560;2024-01-25T00:18:23;99913.30;;;5.13;79.23
70521;BME280;58442;52.716;23.560;2024-01-25T00:18:34;99912.52;;;5.13;79.25
70521;BME280;58442;52.716;23.560;2024-01-25T00:18:45;99910.16;;;5.11;79.24
70521;BME280;58442;52.716;23.560;2024-01-25T00:18:56;99916.34;;;5.12;79.24
70521;BME280;58442;52.716;23.560;2024-01-25T00:19:07;99912.85;;;5.11;79.25
70521;BME280;58442;52.716;23.560;2024-01-25T00:19:18;99905.55;;;5.12;79.26
70521;BME280;58442;52.716;23.560;2024-01-25T00:19:29;99916.34;;;5.12;79.26
70521;BME280;58442;52.716;23.560;2024-01-25T00:19:40;99907.46;;;5.11;79.26
70521;BME280;58442;52.716;23.560;2024-01-25T00:19:52;99905.55;;;5.12;79.27
70521;BME280;58442;52.716;23.560;2024-01-25T00:20:04;99905.55;;;5.12;79.27
70521;BME280;58442;52.716;23.560;2024-01-25T00:20:15;99910.16;;;5.11;79.26
70521;BME280;58442;52.716;23.560;2024-01-25T00:20:26;99910.16;;;5.11;79.26
70521;BME280;58442;52.716;23.560;2024-01-25T00:20:38;99908.25;;;5.12;79.27
70521;BME280;58442;52.716;23.560;2024-01-25T00:20:49;99910.95;;;5.12;79.27
70521;BME280;58442;52.716;23.560;2024-01-25T00:21:01;99907.13;;;5.13;79.27
70521;BME280;58442;52.716;23.560;2024-01-25T00:21:12;99909.83;;;5.13;79.27
70521;BME280;58442;52.716;23.560;2024-01-25T00:21:23;99911.73;;;5.12;79.27
70521;BME280;58442;52.716;23.560;2024-01-25T00:21:34;99908.25;;;5.12;79.27
70521;BME280;58442;52.716;23.560;2024-01-25T00:21:45;99911.73;;;5.12;79.27
70521;BME280;58442;52.716;23.560;2024-01-25T00:21:56;99909.03;;;5.12;79.27
70521;BME280;58442;52.716;23.560;2024-01-25T00:22:07;99900.17;;;5.12;79.26
70521;BME280;58442;52.716;23.560;2024-01-25T00:22:18;99909.83;;;5.13;79.26
70521;BME280;58442;52.716;23.560;2024-01-25T00:22:30;99911.73;;;5.12;79.26
70521;BME280;58442;52.716;23.560;2024-01-25T00:22:41;99907.13;;;5.13;79.25
70521;BME280;58442;52.716;23.560;2024-01-25T00:22:52;99899.38;;;5.11;79.13
70521;BME280;58442;52.716;23.560;2024-01-25T00:23:03;99909.03;;;5.12;79.26
70521;BME280;58442;52.716;23.560;2024-01-25T00:23:14;99907.13;;;5.13;79.26
70521;BME280;58442;52.716;23.560;2024-01-25T00:23:26;99907.13;;;5.13;79.26
70521;BME280;58442;52.716;23.560;2024-01-25T00:23:38;99911.73;;;5.12;79.26
70521;BME280;58442;52.716;23.560;2024-01-25T00:23:49;99908.70;;;5.14;79.27
70521;BME280;58442;52.716;23.560;2024-01-25T00:24:00;99907.91;;;5.13;79.27
70521;BME280;58442;52.716;23.560;2024-01-25T00:24:12;99907.91;;;5.13;79.27
70521;BME280;58442;52.716;23.560;2024-01-25T00:24:25;99906.01;;;5.14;79.27
70521;BME280;58442;52.716;23.560;2024-01-25T00:24:37;99902.52;;;5.13;79.26
70521;BME280;58442;52.716;23.560;2024-01-25T00:24:48;99897.14;;;5.13;79.26
70521;BME280;58442;52.716;23.560;2024-01-25T00:24:59;99912.99;;;5.15;79.26
70521;BME280;58442;52.716;23.560;2024-01-25T00:25:10;99912.52;;;5.13;79.27
70521;BME280;58442;52.716;23.560;2024-01-25T00:25:22;99911.40;;;5.14;79.26
70521;BME280;58442;52.716;23.560;2024-01-25T00:25:33;99903.31;;;5.14;79.27
70521;BME280;58442;52.716;23.560;2024-01-25T00:25:45;99901.74;;;5.13;79.27
70521;BME280;58442;52.716;23.560;2024-01-25T00:25:56;99904.43;;;5.13;79.26
70521;BME280;58442;52.716;23.560;2024-01-25T00:26:10;99899.04;;;5.13;79.26
70521;BME280;58442;52.716;23.560;2024-01-25T00:26:21;99907.13;;;5.13;79.25
70521;BME280;58442;52.716;23.560;2024-01-25T00:26:32;99909.83;;;5.13;79.23
70521;BME280;58442;52.716;23.560;2024-01-25T00:26:43;99909.03;;;5.12;79.23
70521;BME280;58442;52.716;23.560;2024-01-25T00:26:54;99909.83;;;5.13;79.25
70521;BME280;58442;52.716;23.560;2024-01-25T00:27:06;99904.43;;;5.13;79.23
70521;BME280;58442;52.716;23.560;2024-01-25T00:27:17;99900.96;;;5.12;79.23
70521;BME280;58442;52.716;23.560;2024-01-25T00:27:28;99907.13;;;5.13;79.23
70521;BME280;58442;52.716;23.560;2024-01-25T00:27:39;99904.43;;;5.13;79.23
70521;BME280;58442;52.716;23.560;2024-01-25T00:27:50;99900.96;;;5.12;79.23
70521;BME280;58442;52.716;23.560;2024-01-25T00:28:01;99904.43;;;5.13;79.25
70521;BME280;58442;52.716;23.560;2024-01-25T00:28:12;99913.30;;;5.13;79.25
70521;BME280;58442;52.716;23.560;2024-01-25T00:28:25;99909.83;;;5.13;79.23
70521;BME280;58442;52.716;23.560;2024-01-25T00:28:36;99909.37;;;5.11;79.24
70521;BME280;58442;52.716;23.560;2024-01-25T00:28:47;99907.13;;;5.13;79.23
70521;BME280;58442;52.716;23.560;2024-01-25T00:28:58;99909.03;;;5.12;79.23
70521;BME280;58442;52.716;23.560;2024-01-25T00:29:10;99906.34;;;5.12;79.23
70521;BME280;58442;52.716;23.560;2024-01-25T00:29:21;99912.52;;;5.13;79.22
70521;BME280;58442;52.716;23.560;2024-01-25T00:29:34;99899.04;;;5.13;79.22
70521;BME280;58442;52.716;23.560;2024-01-25T00:29:45;99904.43;;;5.13;79.21
70521;BME280;58442;52.716;23.560;2024-01-25T00:29:56;99906.34;;;5.12;79.21
70521;BME280;58442;52.716;23.560;2024-01-25T00:30:08;99909.03;;;5.12;79.21
70521;BME280;58442;52.716;23.560;2024-01-25T00:30:19;99909.03;;;5.12;79.20
70521;BME280;58442;52.716;23.560;2024-01-25T00:30:31;99905.55;;;5.12;79.21
70521;BME280;58442;52.716;23.560;2024-01-25T00:30:42;99910.95;;;5.12;79.21
70521;BME280;58442;52.716;23.560;2024-01-25T00:30:53;99907.13;;;5.13;79.21
70521;BME280;58442;52.716;23.560;2024-01-25T00:31:04;99906.34;;;5.12;79.20
70521;BME280;58442;52.716;23.560;2024-01-25T00:31:15;99912.52;;;5.13;79.20
70521;BME280;58442;52.716;23.560;2024-01-25T00:31:27;99909.03;;;5.12;79.19
70521;BME280;58442;52.716;23.560;2024-01-25T00:31:38;99908.25;;;5.12;79.20
70521;BME280;58442;52.716;23.560;2024-01-25T00:31:49;99908.25;;;5.12;79.21
70521;BME280;58442;52.716;23.560;2024-01-25T00:32:00;99903.65;;;5.12;79.21
70521;BME280;58442;52.716;23.560;2024-01-25T00:32:11;99906.34;;;5.12;79.22
70521;BME280;58442;52.716;23.560;2024-01-25T00:32:22;99905.55;;;5.12;79.22
70521;BME280;58442;52.716;23.560;2024-01-25T00:32:33;99908.25;;;5.12;79.23
70521;BME280;58442;52.716;23.560;2024-01-25T00:32:44;99910.16;;;5.11;79.23
70521;BME280;58442;52.716;23.560;2024-01-25T00:32:59;99904.43;;;5.13;79.23
70521;BME280;58442;52.716;23.560;2024-01-25T00:33:12;99909.03;;;5.12;79.23
70521;BME280;58442;52.716;23.560;2024-01-25T00:33:23;99913.63;;;5.12;79.24
70521;BME280;58442;52.716;23.560;2024-01-25T00:33:34;99912.52;;;5.13;79.25
70521;BME280;58442;52.716;23.560;2024-01-25T00:33:45;99916.34;;;5.12;79.26
70521;BME280;58442;52.716;23.560;2024-01-25T00:34:00;99906.34;;;5.12;79.26
70521;BME280;58442;52.716;23.560;2024-01-25T00:34:11;99902.87;;;5.12;79.24
70521;BME280;58442;52.716;23.560;2024-01-25T00:34:23;99910.95;;;5.12;79.26
70521;BME280;58442;52.716;23.560;2024-01-25T00:34:35;99917.12;;;5.12;79.26
70521;BME280;58442;52.716;23.560;2024-01-25T00:34:47;99905.55;;;5.12;79.28
70521;BME280;58442;52.716;23.560;2024-01-25T00:34:59;99906.34;;;5.12;79.27
70521;BME280;58442;52.716;23.560;2024-01-25T00:35:10;99906.34;;;5.12;79.29
70521;BME280;58442;52.716;23.560;2024-01-25T00:35:25;99909.83;;;5.13;79.29
70521;BME280;58442;52.716;23.560;2024-01-25T00:35:36;99902.87;;;5.12;79.29
70521;BME280;58442;52.716;23.560;2024-01-25T00:35:48;99905.55;;;5.12;79.29
70521;BME280;58442;52.716;23.560;2024-01-25T00:35:59;99903.65;;;5.12;79.29
70521;BME280;58442;52.716;23.560;2024-01-25T00:36:12;99907.13;;;5.13;79.30
70521;BME280;58442;52.716;23.560;2024-01-25T00:36:24;99907.46;;;5.11;79.30
70521;BME280;58442;52.716;23.560;2024-01-25T00:36:36;99919.02;;;5.12;79.30
70521;BME280;58442;52.716;23.560;2024-01-25T00:36:47;99909.83;;;5.13;79.30
70521;BME280;58442;52.716;23.560;2024-01-25T00:36:59;99913.30;;;5.13;79.30
70521;BME280;58442;52.716;23.560;2024-01-25T00:37:11;99913.63;;;5.12;79.30
70521;BME280;58442;52.716;23.560;2024-01-25T00:37:22;99911.73;;;5.12;79.30
70521;BME280;58442;52.716;23.560;2024-01-25T00:37:34;99914.43;;;5.12;79.30
70521;BME280;58442;52.716;23.560;2024-01-25T00:37:45;99914.43;;;5.12;79.31
70521;BME280;58442;52.716;23.560;2024-01-25T00:37:57;99916.34;;;5.12;79.30
70521;BME280;58442;52.716;23.560;2024-01-25T00:38:09;99910.95;;;5.12;79.30
70521;BME280;58442;52.716;23.560;2024-01-25T00:38:20;99914.43;;;5.12;79.30
70521;BME280;58442;52.716;23.560;2024-01-25T00:38:32;99914.43;;;5.12;79.30
70521;BME280;58442;52.716;23.560;2024-01-25T00:38:43;99919.02;;;5.12;79.30
70521;BME280;58442;52.716;23.560;2024-01-25T00:38:55;99914.43;;;5.12;79.30
70521;BME280;58442;52.716;23.560;2024-01-25T00:39:07;99903.65;;;5.12;79.30
70521;BME280;58442;52.716;23.560;2024-01-25T00:39:19;99917.12;;;5.12;79.31
70521;BME280;58442;52.716;23.560;2024-01-25T00:39:30;99915.21;;;5.13;79.31
70521;BME280;58442;52.716;23.560;2024-01-25T00:39:42;99900.17;;;5.12;79.31
70521;BME280;58442;52.716;23.560;2024-01-25T00:39:53;99905.55;;;5.12;79.30
70521;BME280;58442;52.716;23.560;2024-01-25T00:40:05;99908.25;;;5.12;79.50
70521;BME280;58442;52.716;23.560;2024-01-25T00:40:17;99915.54;;;5.11;79.31
70521;BME280;58442;52.716;23.560;2024-01-25T00:40:29;99912.85;;;5.11;79.31
70521;BME280;58442;52.716;23.560;2024-01-25T00:40:41;99910.95;;;5.12;79.31
70521;BME280;58442;52.716;23.560;2024-01-25T00:40:52;99913.63;;;5.12;79.32
70521;BME280;58442;52.716;23.560;2024-01-25T00:41:08;99920.15;;;5.11;79.32
70521;BME280;58442;52.716;23.560;2024-01-25T00:41:21;99914.77;;;5.11;79.32
70521;BME280;58442;52.716;23.560;2024-01-25T00:41:32;99910.16;;;5.11;79.33
70521;BME280;58442;52.716;23.560;2024-01-25T00:41:45;99912.85;;;5.11;79.32
70521;BME280;58442;52.716;23.560;2024-01-25T00:42:03;99909.37;;;5.11;79.33
70521;BME280;58442;52.716;23.560;2024-01-25T00:42:17;99917.12;;;5.12;79.36
70521;BME280;58442;52.716;23.560;2024-01-25T00:42:38;99919.02;;;5.12;79.36
70521;BME280;58442;52.716;23.560;2024-01-25T00:42:50;99912.85;;;5.11;79.34
70521;BME280;58442;52.716;23.560;2024-01-25T00:43:05;99909.37;;;5.11;79.34
70521;BME280;58442;52.716;23.560;2024-01-25T00:43:16;99910.16;;;5.11;79.34
70521;BME280;58442;52.716;23.560;2024-01-25T00:43:28;99909.83;;;5.13;79.35
70521;BME280;58442;52.716;23.560;2024-01-25T00:43:39;99910.95;;;5.12;79.34
70521;BME280;58442;52.716;23.560;2024-01-25T00:43:51;99914.43;;;5.12;79.35
70521;BME280;58442;52.716;23.560;2024-01-25T00:44:03;99910.95;;;5.12;79.34
70521;BME280;58442;52.716;23.560;2024-01-25T00:44:14;99911.73;;;5.12;79.34
70521;BME280;58442;52.716;23.560;2024-01-25T00:44:26;99911.73;;;5.12;79.35
70521;BME280;58442;52.716;23.560;2024-01-25T00:44:38;99909.03;;;5.12;79.35
70521;BME280;58442;52.716;23.560;2024-01-25T00:44:50;99915.21;;;5.13;79.35
70521;BME280;58442;52.716;23.560;2024-01-25T00:45:01;99910.95;;;5.12;79.34
70521;BME280;58442;52.716;23.560;2024-01-25T00:45:13;99917.91;;;5.13;79.34
70521;BME280;58442;52.716;23.560;2024-01-25T00:45:24;99915.21;;;5.13;79.34
70521;BME280;58442;52.716;23.560;2024-01-25T00:45:36;99905.55;;;5.12;79.34
70521;BME280;58442;52.716;23.560;2024-01-25T00:45:48;99914.43;;;5.12;79.35
70521;BME280;58442;52.716;23.560;2024-01-25T00:45:59;99916.34;;;5.12;79.33
70521;BME280;58442;52.716;23.560;2024-01-25T00:46:11;99915.21;;;5.13;79.34
70521;BME280;58442;52.716;23.560;2024-01-25T00:46:23;99915.21;;;5.13;79.34
70521;BME280;58442;52.716;23.560;2024-01-25T00:46:34;99913.63;;;5.12;79.34
70521;BME280;58442;52.716;23.560;2024-01-25T00:46:46;99919.81;;;5.12;79.35
70521;BME280;58442;52.716;23.560;2024-01-25T00:46:58;99923.29;;;5.13;79.35
70521;BME280;58442;52.716;23.560;2024-01-25T00:47:10;99907.13;;;5.13;79.36
70521;BME280;58442;52.716;23.560;2024-01-25T00:47:22;99911.73;;;5.12;79.35
70521;BME280;58442;52.716;23.560;2024-01-25T00:47:33;99908.25;;;5.12;79.34
70521;BME280;58442;52.716;23.560;2024-01-25T00:47:45;99922.50;;;5.12;79.35
70521;BME280;58442;52.716;23.560;2024-01-25T00:47:57;99917.12;;;5.12;79.34
70521;BME280;58442;52.716;23.560;2024-01-25T00:48:09;99910.16;;;5.11;79.33
70521;BME280;58442;52.716;23.560;2024-01-25T00:48:20;99912.85;;;5.11;79.34
70521;BME280;58442;52.716;23.560;2024-01-25T00:48:32;99912.85;;;5.11;79.34
70521;BME280;58442;52.716;23.560;2024-01-25T00:48:43;99908.25;;;5.12;79.34
70521;BME280;58442;52.716;23.560;2024-01-25T00:48:55;99914.43;;;5.12;79.35
70521;BME280;58442;52.716;23.560;2024-01-25T00:49:06;99910.16;;;5.11;79.34
70521;BME280;58442;52.716;23.560;2024-01-25T00:49:18;99911.73;;;5.12;79.35
70521;BME280;58442;52.716;23.560;2024-01-25T00:49:29;99910.95;;;5.12;79.34
70521;BME280;58442;52.716;23.560;2024-01-25T00:49:41;99911.73;;;5.12;79.36
70521;BME280;58442;52.716;23.560;2024-01-25T00:49:52;99917.12;;;5.12;79.35
70521;BME280;58442;52.716;23.560;2024-01-25T00:50:04;99906.34;;;5.12;79.36
70521;BME280;58442;52.716;23.560;2024-01-25T00:50:17;99911.73;;;5.12;79.35
70521;BME280;58442;52.716;23.560;2024-01-25T00:50:30;99914.43;;;5.12;79.35
70521;BME280;58442;52.716;23.560;2024-01-25T00:50:41;99910.60;;;5.13;79.36
70521;BME280;58442;52.716;23.560;2024-01-25T00:50:53;99911.73;;;5.12;79.35
70521;BME280;58442;52.716;23.560;2024-01-25T00:51:07;99906.34;;;5.12;79.37
70521;BME280;58442;52.716;23.560;2024-01-25T00:51:21;99907.13;;;5.13;79.36
70521;BME280;58442;52.716;23.560;2024-01-25T00:51:34;99913.30;;;5.13;79.36
70521;BME280;58442;52.716;23.560;2024-01-25T00:51:48;99909.03;;;5.12;79.37
70521;BME280;58442;52.716;23.560;2024-01-25T00:51:59;99901.74;;;5.13;79.36
70521;BME280;58442;52.716;23.560;2024-01-25T00:52:12;99900.17;;;5.12;79.36
70521;BME280;58442;52.716;23.560;2024-01-25T00:52:23;99910.60;;;5.13;79.36
70521;BME280;58442;52.716;23.560;2024-01-25T00:52:35;99907.13;;;5.13;79.35
70521;BME280;58442;52.716;23.560;2024-01-25T00:52:47;99905.22;;;5.13;79.36
70521;BME280;58442;52.716;23.560;2024-01-25T00:52:59;99907.13;;;5.13;79.36
70521;BME280;58442;52.716;23.560;2024-01-25T00:53:10;99907.13;;;5.13;79.36
70521;BME280;58442;52.716;23.560;2024-01-25T00:53:22;99907.13;;;5.13;79.38
70521;BME280;58442;52.716;23.560;2024-01-25T00:53:34;99906.01;;;5.14;79.38
70521;BME280;58442;52.716;23.560;2024-01-25T00:53:45;99905.22;;;5.13;79.37
70521;BME280;58442;52.716;23.560;2024-01-25T00:53:57;99907.13;;;5.13;79.37
70521;BME280;58442;52.716;23.560;2024-01-25T00:54:08;99907.13;;;5.13;79.36
70521;BME280;58442;52.716;23.560;2024-01-25T00:54:20;99911.40;;;5.14;79.36
70521;BME280;58442;52.716;23.560;2024-01-25T00:54:31;99902.52;;;5.13;79.36
70521;BME280;58442;52.716;23.560;2024-01-25T00:54:43;99900.96;;;5.12;79.35
70521;BME280;58442;52.716;23.560;2024-01-25T00:54:55;99909.03;;;5.12;79.35
70521;BME280;58442;52.716;23.560;2024-01-25T00:55:07;99901.74;;;5.13;79.34
70521;BME280;58442;52.716;23.560;2024-01-25T00:55:19;99900.62;;;5.14;79.34
70521;BME280;58442;52.716;23.560;2024-01-25T00:55:30;99900.17;;;5.12;79.33
70521;BME280;58442;52.716;23.560;2024-01-25T00:55:42;99904.43;;;5.13;79.34
70521;BME280;58442;52.716;23.560;2024-01-25T00:55:53;99902.08;;;5.11;79.33
70521;BME280;58442;52.716;23.560;2024-01-25T00:56:05;99907.13;;;5.13;79.34
70521;BME280;58442;52.716;23.560;2024-01-25T00:56:16;99904.43;;;5.13;79.34
70521;BME280;58442;52.716;23.560;2024-01-25T00:56:28;99911.73;;;5.12;79.35
70521;BME280;58442;52.716;23.560;2024-01-25T00:56:40;99910.95;;;5.12;79.34
70521;BME280;58442;52.716;23.560;2024-01-25T00:56:51;99902.08;;;5.11;79.33
70521;BME280;58442;52.716;23.560;2024-01-25T00:57:03;99900.96;;;5.12;79.35
70521;BME280;58442;52.716;23.560;2024-01-25T00:57:15;99900.17;;;5.12;79.34
70521;BME280;58442;52.716;23.560;2024-01-25T00:57:26;99904.77;;;5.11;79.35
70521;BME280;58442;52.716;23.560;2024-01-25T00:57:38;99910.16;;;5.11;79.37
70521;BME280;58442;52.716;23.560;2024-01-25T00:57:49;99904.77;;;5.11;79.37
70521;BME280;58442;52.716;23.560;2024-01-25T00:58:02;99902.08;;;5.11;79.37
70521;BME280;58442;52.716;23.560;2024-01-25T00:58:14;99904.77;;;5.11;79.38
70521;BME280;58442;52.716;23.560;2024-01-25T00:58:26;99909.37;;;5.11;79.37
70521;BME280;58442;52.716;23.560;2024-01-25T00:58:37;99913.97;;;5.10;79.38
70521;BME280;58442;52.716;23.560;2024-01-25T00:58:49;99902.41;;;5.10;79.38
70521;BME280;58442;52.716;23.560;2024-01-25T00:59:00;99906.68;;;5.11;79.39
70521;BME280;58442;52.716;23.560;2024-01-25T00:59:11;99909.37;;;5.11;79.40
70521;BME280;58442;52.716;23.560;2024-01-25T00:59:23;99910.49;;;5.10;79.41
70521;BME280;58442;52.716;23.560;2024-01-25T00:59:35;99903.98;;;5.11;79.42
70521;BME280;58442;52.716;23.560;2024-01-25T00:59:47;99912.06;;;5.11;79.43
70521;BME280;58442;52.716;23.560;2024-01-25T00:59:58;99912.06;;;5.11;79.43
70521;BME280;58442;52.716;23.560;2024-01-25T01:00:11;99902.41;;;5.10;79.43
70521;BME280;58442;52.716;23.560;2024-01-25T01:00:23;99903.20;;;5.10;79.44
70521;BME280;58442;52.716;23.560;2024-01-25T01:00:35;99902.41;;;5.10;79.42
70521;BME280;58442;52.716;23.560;2024-01-25T01:00:47;99907.80;;;5.10;79.43
70521;BME280;58442;52.716;23.560;2024-01-25T01:00:58;99913.19;;;5.10;79.43
70521;BME280;58442;52.716;23.560;2024-01-25T01:01:10;99904.33;;;5.09;79.43
70521;BME280;58442;52.716;23.560;2024-01-25T01:01:23;99913.19;;;5.10;79.42
70521;BME280;58442;52.716;23.560;2024-01-25T01:01:36;99904.33;;;5.09;79.43
70521;BME280;58442;52.716;23.560;2024-01-25T01:01:48;99908.59;;;5.10;79.42
70521;BME280;58442;52.716;23.560;2024-01-25T01:02:01;99906.23;;;5.09;79.42
70521;BME280;58442;52.716;23.560;2024-01-25T01:02:15;99907.02;;;5.09;79.43